Time;durP1;ratioP1;P1;durP2;ratioP2;P2;SDS_P1;SDS_P2;PMS_P1;PMS_P2;Temp;Humidity;BMP_temperature;BMP_pressure;BME280_temperature;BME280_humidity;BME280_pressure;Samples;Min_cycle;Max_cycle;Signal;HPM_P1;HPM_P2
2023/06/25 00:00:34;;;;;;;21.80;15.00;;;;;;;27.50;52.85;99938.46;107975;1254;73115;-67
2023/06/25 00:03:01;;;;;;;22.00;15.20;;;;;;;27.62;53.00;99937.08;107914;1254;70064;-67
2023/06/25 00:05:29;;;;;;;22.50;14.50;;;;;;;27.72;52.91;99935.16;107940;1255;72445;-70
2023/06/25 00:07:57;;;;;;;17.80;14.20;;;;;;;27.67;52.85;99940.95;107903;1254;60775;-68
2023/06/25 00:10:25;;;;;;;19.20;14.90;;;;;;;27.75;52.93;99942.99;108230;1254;60040;-67
2023/06/25 00:12:52;;;;;;;21.70;15.00;;;;;;;27.88;52.43;99944.13;107997;1258;71758;-67
2023/06/25 00:15:19;;;;;;;22.10;15.90;;;;;;;27.69;52.95;99941.34;108049;1254;70317;-69
2023/06/25 00:17:47;;;;;;;20.80;15.90;;;;;;;27.70;52.72;99940.17;107939;1253;70346;-69
2023/06/25 00:20:16;;;;;;;21.70;14.90;;;;;;;27.64;52.78;99942.42;107987;1254;61219;-68
2023/06/25 00:22:43;;;;;;;21.00;14.20;;;;;;;27.50;53.36;99939.48;107978;1254;60059;-69
2023/06/25 00:25:31;;;;;;;18.90;14.10;;;;;;;27.47;53.40;99943.08;107953;1259;73441;-68
2023/06/25 00:28:00;;;;;;;21.90;15.20;;;;;;;27.57;53.38;99942.38;107961;1254;71627;-69
2023/06/25 00:30:28;;;;;;;22.70;15.20;;;;;;;27.44;53.76;99947.68;107929;1254;72708;-68
2023/06/25 00:32:55;;;;;;;21.20;16.00;;;;;;;27.49;53.64;99950.62;108018;1254;60441;-69
2023/06/25 00:35:28;;;;;;;25.40;16.30;;;;;;;27.93;52.53;99951.93;108106;1252;59663;-68
2023/06/25 00:38:00;;;;;;;20.90;14.90;;;;;;;27.44;53.57;99953.70;108077;1253;71876;-68
2023/06/25 00:40:28;;;;;;;24.00;16.60;;;;;;;27.49;53.34;99951.52;107906;1254;69076;-68
2023/06/25 00:42:58;;;;;;;23.30;15.70;;;;;;;27.44;53.57;99954.38;107871;1254;71293;-69
2023/06/25 00:45:26;;;;;;;20.20;15.60;;;;;;;27.53;53.40;99960.59;108026;1254;63484;-69
2023/06/25 00:47:54;;;;;;;25.90;16.50;;;;;;;27.54;53.46;99960.86;107957;1253;59644;-69
2023/06/25 00:50:25;;;;;;;25.60;16.20;;;;;;;27.53;53.43;99961.20;107769;1254;73550;-67
2023/06/25 00:52:54;;;;;;;24.10;15.50;;;;;;;27.48;53.97;99961.00;107982;1254;68701;-68
2023/06/25 00:55:22;;;;;;;23.60;16.90;;;;;;;27.22;54.44;99948.89;107863;1253;73889;-68
2023/06/25 00:57:52;;;;;;;23.70;16.30;;;;;;;27.16;54.58;99949.73;107979;1254;61680;-68
2023/06/25 01:00:19;;;;;;;21.70;16.40;;;;;;;26.93;55.20;99949.63;108031;1257;60216;-68
2023/06/25 01:02:51;;;;;;;21.40;14.60;;;;;;;26.88;55.55;99946.79;107942;1254;71825;-68
2023/06/25 01:05:22;;;;;;;19.90;14.60;;;;;;;26.89;55.36;99944.84;107942;1253;70105;-69
2023/06/25 01:07:50;;;;;;;19.70;15.70;;;;;;;26.95;55.28;99941.16;107977;1258;73135;-69
2023/06/25 01:10:17;;;;;;;22.00;16.60;;;;;;;27.27;54.49;99937.54;107965;1255;61886;-68
2023/06/25 01:12:45;;;;;;;25.20;17.50;;;;;;;27.02;54.95;99934.77;107795;1260;60539;-68
2023/06/25 01:15:12;;;;;;;22.00;15.70;;;;;;;26.99;55.11;99930.52;108029;1253;72840;-69
2023/06/25 01:17:40;;;;;;;18.00;13.60;;;;;;;27.06;54.96;99929.71;107893;1254;68936;-68
2023/06/25 01:20:11;;;;;;;22.90;17.10;;;;;;;27.21;54.88;99930.98;107966;1259;71692;-68
2023/06/25 01:22:40;;;;;;;22.40;15.10;;;;;;;27.30;54.41;99930.45;108032;1254;60962;-69
2023/06/25 01:25:09;;;;;;;17.10;14.00;;;;;;;27.61;53.97;99928.02;108201;1256;60358;-68
2023/06/25 01:27:37;;;;;;;20.60;16.10;;;;;;;28.12;52.18;99916.26;107929;1254;72668;-68
2023/06/25 01:30:09;;;;;;;22.20;16.40;;;;;;;28.13;51.97;99913.48;107864;1254;70022;-68
2023/06/25 01:32:41;;;;;;;26.40;17.30;;;;;;;28.25;51.39;99909.23;107963;1254;72687;-68
2023/06/25 01:35:09;;;;;;;24.00;16.30;;;;;;;28.19;51.50;99903.36;107834;1254;61568;-69
2023/06/25 01:37:37;;;;;;;20.00;15.40;;;;;;;28.27;51.19;99896.33;107963;1258;60560;-69
2023/06/25 01:40:09;;;;;;;24.70;15.20;;;;;;;28.15;51.47;99897.20;108006;1254;72574;-70
2023/06/25 01:42:37;;;;;;;16.40;13.10;;;;;;;28.18;51.42;99893.91;108011;1254;69120;-68
2023/06/25 01:45:06;;;;;;;23.00;16.40;;;;;;;28.22;51.05;99895.96;107860;1254;72810;-69
2023/06/25 01:47:33;;;;;;;21.30;17.00;;;;;;;28.19;51.10;99892.88;108654;1253;60399;-69
2023/06/25 01:50:00;;;;;;;21.70;16.80;;;;;;;28.04;51.52;99893.14;107911;1253;60312;-68
2023/06/25 01:52:31;;;;;;;27.50;18.00;;;;;;;27.94;51.91;99893.83;107967;1253;73864;-68
2023/06/25 01:55:01;;;;;;;24.60;18.50;;;;;;;27.95;51.97;99888.10;107899;1253;71262;-69
2023/06/25 01:57:28;;;;;;;22.90;17.40;;;;;;;27.70;52.63;99881.30;107861;1252;71228;-69
2023/06/25 01:59:56;;;;;;;25.40;18.80;;;;;;;27.62;53.17;99875.33;107894;1256;60765;-68
2023/06/25 02:02:23;;;;;;;22.50;17.70;;;;;;;27.75;52.91;99873.17;107977;1253;60521;-67
2023/06/25 02:04:50;;;;;;;21.50;16.10;;;;;;;28.07;52.16;99868.27;108002;1254;73803;-68
2023/06/25 02:07:18;;;;;;;20.20;15.30;;;;;;;28.08;51.87;99863.00;107846;1254;70282;-68
2023/06/25 02:09:45;;;;;;;19.40;13.80;;;;;;;28.07;51.67;99867.21;107859;1254;72680;-68
2023/06/25 02:12:13;;;;;;;21.00;15.20;;;;;;;28.20;50.96;99865.55;107956;1254;61648;-68
2023/06/25 02:14:40;;;;;;;16.70;13.80;;;;;;;28.33;50.73;99863.85;108116;1253;60322;-69
2023/06/25 02:17:07;;;;;;;20.10;15.50;;;;;;;28.32;50.61;99863.08;107886;1260;73892;-69
2023/06/25 02:19:35;;;;;;;24.40;16.40;;;;;;;28.32;50.89;99862.08;107961;1254;68736;-67
2023/06/25 02:22:02;;;;;;;19.40;14.10;;;;;;;28.35;51.05;99862.63;107938;1253;73154;-68
2023/06/25 02:24:30;;;;;;;23.20;15.70;;;;;;;28.40;50.68;99858.77;107923;1253;60695;-68
2023/06/25 02:26:57;;;;;;;22.40;15.20;;;;;;;28.32;50.86;99864.23;107872;1254;60319;-69
2023/06/25 02:29:24;;;;;;;20.50;14.20;;;;;;;28.47;50.71;99860.46;107798;1254;72768;-67
2023/06/25 02:31:52;;;;;;;22.70;15.10;;;;;;;28.42;50.65;99860.54;108009;1253;69026;-68
2023/06/25 02:34:20;;;;;;;16.30;12.80;;;;;;;27.43;52.69;99865.93;108047;1254;71469;-67
2023/06/25 02:36:49;;;;;;;19.90;14.70;;;;;;;27.23;53.46;99864.67;108045;1254;61709;-70
2023/06/25 02:39:17;;;;;;;20.10;15.00;;;;;;;27.15;53.72;99871.06;107915;1253;60030;-69
2023/06/25 02:41:44;;;;;;;18.70;14.60;;;;;;;27.11;53.82;99869.05;108014;1254;73872;-68
2023/06/25 02:44:12;;;;;;;21.30;15.20;;;;;;;27.03;53.92;99861.75;107863;1253;70095;-68
2023/06/25 02:46:39;;;;;;;19.20;14.60;;;;;;;26.91;54.13;99859.41;107959;1254;72116;-68
2023/06/25 02:49:07;;;;;;;20.20;14.30;;;;;;;26.89;54.17;99853.08;107990;1253;61146;-68
2023/06/25 02:51:34;;;;;;;23.40;14.30;;;;;;;26.92;54.18;99852.54;107997;1254;60419;-68
2023/06/25 02:54:02;;;;;;;16.60;12.90;;;;;;;27.03;54.03;99848.48;108005;1254;74292;-67
2023/06/25 02:56:30;;;;;;;19.30;13.50;;;;;;;27.23;53.71;99842.96;107999;1253;70197;-68
2023/06/25 02:58:57;;;;;;;19.00;14.60;;;;;;;27.23;53.83;99838.50;108029;1257;75088;-66
2023/06/25 03:01:25;;;;;;;18.70;14.00;;;;;;;27.20;53.94;99842.07;107953;1254;60446;-68
2023/06/25 03:03:52;;;;;;;21.70;14.90;;;;;;;27.21;54.09;99845.89;107839;1253;60425;-69
2023/06/25 03:06:20;;;;;;;17.70;13.40;;;;;;;27.17;54.29;99846.48;107969;1254;73786;-69
2023/06/25 03:08:47;;;;;;;23.40;16.30;;;;;;;27.29;54.34;99852.05;107912;1254;69051;-67
2023/06/25 03:11:15;;;;;;;19.60;14.30;;;;;;;27.41;54.25;99848.58;107851;1254;72167;-67
2023/06/25 03:13:43;;;;;;;21.70;13.80;;;;;;;27.88;53.41;99851.52;108016;1254;61661;-68
2023/06/25 03:16:10;;;;;;;26.00;15.40;;;;;;;28.64;51.37;99844.34;108046;1253;59111;-68
2023/06/25 03:18:38;;;;;;;16.40;12.90;;;;;;;28.56;51.35;99846.27;108024;1254;73966;-67
2023/06/25 03:21:06;;;;;;;16.80;13.70;;;;;;;28.64;51.39;99847.34;108014;1253;69562;-69
2023/06/25 03:23:33;;;;;;;19.40;14.90;;;;;;;28.88;50.85;99848.80;107859;1253;71424;-68
2023/06/25 03:26:01;;;;;;;17.70;14.70;;;;;;;28.97;50.32;99847.71;107953;1252;61701;-68
2023/06/25 03:28:28;;;;;;;19.90;15.60;;;;;;;29.02;50.23;99844.03;107827;1252;60294;-68
2023/06/25 03:30:56;;;;;;;20.40;15.70;;;;;;;28.90;50.51;99838.98;107854;1254;73863;-68
2023/06/25 03:33:23;;;;;;;19.20;13.50;;;;;;;28.66;51.00;99837.80;107991;1254;70076;-67
2023/06/25 03:35:50;;;;;;;21.80;15.60;;;;;;;28.70;51.08;99833.52;108039;1254;71846;-67
2023/06/25 03:38:18;;;;;;;18.70;13.60;;;;;;;28.75;50.73;99828.48;107879;1254;61483;-68
2023/06/25 03:40:45;;;;;;;19.00;15.30;;;;;;;28.62;51.19;99829.80;108025;1253;61833;-69
2023/06/25 03:43:13;;;;;;;18.50;14.20;;;;;;;28.41;51.42;99833.10;107941;1254;73970;-69
2023/06/25 03:45:40;;;;;;;20.40;14.70;;;;;;;28.46;51.13;99837.05;107881;1253;68823;-67
2023/06/25 03:48:08;;;;;;;20.00;15.50;;;;;;;28.53;51.21;99835.31;107909;1254;72769;-70
2023/06/25 03:50:36;;;;;;;19.80;14.80;;;;;;;28.76;50.97;99835.95;107852;1254;60479;-68
2023/06/25 03:53:03;;;;;;;21.10;15.30;;;;;;;29.05;50.24;99834.14;107984;1259;60352;-68
2023/06/25 03:55:33;;;;;;;25.30;16.40;;;;;;;28.92;50.27;99835.52;108013;1254;73099;-69
2023/06/25 03:58:00;;;;;;;16.90;13.50;;;;;;;28.81;50.73;99836.29;107982;1253;69016;-67
2023/06/25 04:00:28;;;;;;;18.30;14.10;;;;;;;28.55;51.25;99833.45;108031;1254;71788;-67
2023/06/25 04:02:55;;;;;;;25.70;17.00;;;;;;;28.36;51.86;99830.75;107998;1257;60971;-68
2023/06/25 04:05:23;;;;;;;20.00;14.00;;;;;;;28.29;52.09;99832.62;107897;1254;60546;-68
2023/06/25 04:07:50;;;;;;;22.10;15.10;;;;;;;28.34;52.01;99831.39;108044;1257;72781;-67
2023/06/25 04:10:18;;;;;;;16.80;13.20;;;;;;;28.23;51.84;99832.38;108035;1253;68977;-68
2023/06/25 04:12:46;;;;;;;19.30;15.50;;;;;;;28.30;51.36;99830.63;108014;1254;71606;-69
2023/06/25 04:15:13;;;;;;;19.90;16.00;;;;;;;28.12;51.82;99830.86;108000;1259;61707;-69
2023/06/25 04:17:41;;;;;;;20.60;16.00;;;;;;;27.44;53.74;99835.02;108018;1253;60303;-68
2023/06/25 04:20:12;;;;;;;21.70;16.50;;;;;;;27.21;54.51;99829.48;107849;1254;74066;-68
2023/06/25 04:22:39;;;;;;;21.80;16.80;;;;;;;27.20;54.87;99831.20;107981;1258;69898;-67
2023/06/25 04:25:07;;;;;;;19.20;15.00;;;;;;;27.33;54.75;99834.50;107987;1253;72941;-68
2023/06/25 04:27:34;;;;;;;21.60;17.20;;;;;;;27.49;54.69;99835.92;107971;1254;60450;-68
2023/06/25 04:30:02;;;;;;;18.60;15.20;;;;;;;27.56;54.81;99837.87;108395;1254;58368;-68
2023/06/25 04:32:32;;;;;;;20.30;17.30;;;;;;;27.79;54.49;99833.38;107831;1253;71850;-69
2023/06/25 04:35:01;;;;;;;21.90;16.50;;;;;;;27.58;55.22;99831.16;108010;1253;70490;-69
2023/06/25 04:37:28;;;;;;;21.80;15.60;;;;;;;27.61;55.03;99829.72;108040;1256;73011;-69
2023/06/25 04:39:57;;;;;;;18.10;14.90;;;;;;;28.06;53.74;99826.89;107999;1255;61877;-68
2023/06/25 04:42:24;;;;;;;19.00;13.90;;;;;;;28.00;53.60;99827.66;107981;1253;60279;-69
2023/06/25 04:44:52;;;;;;;19.40;14.40;;;;;;;27.79;54.25;99831.05;108038;1254;73750;-69
2023/06/25 04:47:20;;;;;;;23.60;16.40;;;;;;;27.91;54.13;99825.41;108056;1253;70064;-68
2023/06/25 04:49:48;;;;;;;20.90;14.90;;;;;;;28.18;53.68;99826.20;107966;1253;72662;-68
2023/06/25 04:52:19;;;;;;;24.20;16.50;;;;;;;28.27;53.51;99821.48;107870;1257;60534;-68
2023/06/25 04:54:46;;;;;;;18.40;14.50;;;;;;;28.39;53.24;99820.52;108005;1253;60444;-69
2023/06/25 04:57:14;;;;;;;20.80;14.90;;;;;;;28.38;52.61;99823.95;107984;1253;72940;-69
2023/06/25 04:59:41;;;;;;;20.20;14.90;;;;;;;28.49;52.71;99823.80;107980;1253;70000;-68
2023/06/25 05:02:09;;;;;;;16.50;13.70;;;;;;;28.57;52.25;99823.13;108013;1253;72673;-68
2023/06/25 05:04:36;;;;;;;20.30;13.90;;;;;;;28.55;51.89;99820.02;107948;1253;60498;-69
2023/06/25 05:07:04;;;;;;;17.70;12.80;;;;;;;28.58;51.57;99823.73;107975;1259;59094;-68
2023/06/25 05:09:31;;;;;;;15.30;12.50;;;;;;;28.70;51.25;99822.02;107964;1253;74143;-68
2023/06/25 05:11:58;;;;;;;18.10;13.20;;;;;;;28.82;51.26;99815.35;107984;1253;69101;-68
2023/06/25 05:14:27;;;;;;;16.90;12.30;;;;;;;29.19;50.73;99812.05;108030;1254;74487;-68
2023/06/25 05:16:54;;;;;;;12.80;10.30;;;;;;;29.78;49.54;99805.11;108030;1253;60383;-67
2023/06/25 05:19:21;;;;;;;13.70;10.40;;;;;;;30.08;48.63;99812.73;108030;1252;60437;-68
2023/06/25 05:21:49;;;;;;;14.70;9.80;;;;;;;30.34;47.85;99814.75;108024;1253;73868;-68
2023/06/25 05:24:16;;;;;;;16.20;11.00;;;;;;;30.77;47.18;99827.11;108024;1254;70781;-68
2023/06/25 05:26:44;;;;;;;15.00;10.50;;;;;;;30.98;47.06;99829.20;108031;1253;71365;-68
2023/06/25 05:29:11;;;;;;;14.20;11.60;;;;;;;31.28;46.87;99827.30;107943;1258;61660;-67
2023/06/25 05:31:38;;;;;;;18.70;11.90;;;;;;;31.61;46.28;99827.45;107976;1253;60332;-69
2023/06/25 05:34:06;;;;;;;15.40;10.90;;;;;;;31.96;46.04;99827.28;108023;1253;73807;-68
2023/06/25 05:36:33;;;;;;;17.30;12.10;;;;;;;32.09;45.71;99826.30;107981;1254;69546;-68
2023/06/25 05:39:01;;;;;;;16.00;11.50;;;;;;;32.40;45.10;99828.52;108013;1254;72743;-71
2023/06/25 05:41:28;;;;;;;16.10;11.20;;;;;;;32.70;44.28;99826.45;107979;1253;61640;-69
2023/06/25 05:43:56;;;;;;;19.20;11.20;;;;;;;32.63;44.25;99821.02;107969;1254;60969;-68
2023/06/25 05:46:23;;;;;;;13.90;10.70;;;;;;;32.62;44.37;99823.30;107957;1253;74406;-68
2023/06/25 05:48:50;;;;;;;14.40;10.80;;;;;;;32.55;44.35;99820.35;107982;1258;70307;-67
2023/06/25 05:51:18;;;;;;;15.10;10.60;;;;;;;32.62;44.10;99822.21;107943;1252;63721;-66
2023/06/25 05:53:45;;;;;;;11.40;9.10;;;;;;;32.56;43.79;99821.34;108020;1253;61643;-69
2023/06/25 05:56:13;;;;;;;13.30;10.70;;;;;;;32.60;43.45;99819.92;108004;1253;60873;-69
2023/06/25 05:58:43;;;;;;;10.30;8.80;;;;;;;32.75;42.78;99817.02;108051;1257;73932;-68
2023/06/25 06:01:11;;;;;;;13.00;10.10;;;;;;;32.81;42.28;99822.30;108044;1254;69989;-68
2023/06/25 06:03:38;;;;;;;14.50;10.00;;;;;;;32.31;43.07;99821.74;107974;1254;72722;-68
2023/06/25 06:06:06;;;;;;;16.80;9.80;;;;;;;32.32;43.50;99826.48;108001;1253;61640;-68
2023/06/25 06:08:33;;;;;;;14.20;10.10;;;;;;;32.36;43.31;99828.17;108058;1254;60433;-67
2023/06/25 06:11:01;;;;;;;19.80;10.50;;;;;;;32.47;43.03;99826.86;108117;1254;73758;-69
2023/06/25 06:13:28;;;;;;;15.20;10.80;;;;;;;33.02;42.59;99826.77;108111;1253;70468;-67
2023/06/25 06:15:55;;;;;;;11.80;10.50;;;;;;;32.88;42.92;99828.48;108096;1254;71431;-69
2023/06/25 06:18:23;;;;;;;12.60;9.80;;;;;;;32.89;43.06;99825.95;108003;1254;60428;-67
2023/06/25 06:20:50;;;;;;;16.60;10.60;;;;;;;32.86;42.74;99822.35;107985;1254;60394;-68
2023/06/25 06:23:18;;;;;;;13.60;9.90;;;;;;;33.03;42.61;99821.14;107921;1254;64891;-69
2023/06/25 06:25:45;;;;;;;14.90;10.90;;;;;;;33.13;42.33;99821.02;107947;1252;69930;-69
2023/06/25 06:28:13;;;;;;;15.90;10.20;;;;;;;33.15;41.97;99822.14;108052;1253;63723;-68
2023/06/25 06:30:40;;;;;;;11.10;8.70;;;;;;;33.23;41.42;99817.05;108051;1253;60319;-68
2023/06/25 06:33:08;;;;;;;12.50;9.30;;;;;;;33.42;40.66;99816.90;108054;1253;60294;-69
2023/06/25 06:35:35;;;;;;;12.40;7.90;;;;;;;33.43;39.54;99817.61;108116;1252;64889;-67
2023/06/25 06:38:03;;;;;;;10.00;8.10;;;;;;;33.42;38.62;99818.41;108029;1252;61401;-69
2023/06/25 06:40:30;;;;;;;10.80;7.30;;;;;;;33.36;38.34;99821.04;107975;1254;62588;-68
2023/06/25 06:42:57;;;;;;;9.10;7.20;;;;;;;33.47;37.01;99821.46;108015;1257;60220;-68
2023/06/25 06:45:25;;;;;;;8.80;7.00;;;;;;;33.53;36.51;99818.16;108105;1254;60264;-70
2023/06/25 06:47:52;;;;;;;12.60;6.70;;;;;;;33.63;36.78;99816.39;107945;1252;65059;-68
2023/06/25 06:50:20;;;;;;;9.10;6.50;;;;;;;33.79;36.07;99813.11;108118;1252;61553;-68
2023/06/25 06:52:47;;;;;;;11.60;6.90;;;;;;;33.78;35.80;99813.92;108043;1257;62721;-67
2023/06/25 06:55:14;;;;;;;9.50;7.70;;;;;;;33.78;35.51;99815.14;108023;1254;60439;-67
2023/06/25 06:57:43;;;;;;;9.40;6.50;;;;;;;33.83;35.29;99817.16;107997;1253;60326;-69
2023/06/25 07:00:11;;;;;;;10.60;6.90;;;;;;;33.90;34.58;99817.17;107969;1253;65053;-69
2023/06/25 07:02:38;;;;;;;11.20;6.60;;;;;;;33.98;34.67;99816.10;107988;1254;61367;-69
2023/06/25 07:05:08;;;;;;;9.60;6.30;;;;;;;33.90;34.49;99820.20;107989;1257;63914;-68
2023/06/25 07:07:36;;;;;;;9.30;6.90;;;;;;;33.98;33.88;99813.08;107990;1254;61095;-68
2023/06/25 07:10:04;;;;;;;9.90;6.60;;;;;;;34.07;33.85;99812.13;108038;1254;60419;-68
2023/06/25 07:12:32;;;;;;;10.70;6.90;;;;;;;33.92;34.46;99807.30;107925;1254;63731;-68
2023/06/25 07:14:59;;;;;;;11.10;6.10;;;;;;;33.83;35.30;99802.77;107991;1259;60673;-68
2023/06/25 07:17:26;;;;;;;11.20;7.10;;;;;;;33.82;35.81;99800.11;108002;1254;64151;-68
2023/06/25 07:19:56;;;;;;;8.30;7.20;;;;;;;33.98;35.94;99804.58;108005;1253;60298;-69
2023/06/25 07:22:24;;;;;;;9.80;7.30;;;;;;;34.07;36.13;99805.55;108009;1254;60311;-68
2023/06/25 07:24:51;;;;;;;9.80;7.60;;;;;;;34.14;36.49;99805.11;108032;1254;63845;-68
2023/06/25 07:27:18;;;;;;;11.80;7.40;;;;;;;34.36;36.17;99808.44;108020;1258;63541;-69
2023/06/25 07:29:46;;;;;;;10.20;7.10;;;;;;;34.43;35.94;99810.40;108069;1254;63931;-68
2023/06/25 07:32:13;;;;;;;10.10;6.60;;;;;;;34.43;34.50;99812.58;108050;1254;60411;-69
2023/06/25 07:34:40;;;;;;;9.60;5.90;;;;;;;34.51;34.37;99817.38;108037;1254;60454;-69
2023/06/25 07:37:08;;;;;;;11.10;7.10;;;;;;;34.64;34.44;99816.41;108028;1259;64603;-69
2023/06/25 07:39:35;;;;;;;7.60;6.60;;;;;;;34.90;34.25;99817.58;108081;1253;61649;-68
2023/06/25 07:42:03;;;;;;;11.40;7.10;;;;;;;34.75;34.22;99818.37;108059;1253;65935;-70
2023/06/25 07:44:30;;;;;;;9.60;6.70;;;;;;;34.76;34.12;99817.21;107990;1258;59685;-70
2023/06/25 07:47:18;;;;;;;8.10;6.50;;;;;;;34.68;34.13;99818.59;108003;1254;60354;-69
2023/06/25 07:49:45;;;;;;;9.20;6.10;;;;;;;34.64;33.73;99816.98;107929;1254;65452;-69
2023/06/25 07:52:12;;;;;;;11.20;6.40;;;;;;;34.54;33.37;99817.70;107987;1254;61823;-69
2023/06/25 07:54:40;;;;;;;6.50;5.80;;;;;;;34.51;33.78;99816.73;108037;1254;62818;-68
2023/06/25 07:57:07;;;;;;;9.40;6.40;;;;;;;34.72;33.24;99814.17;108033;1254;60500;-69
2023/06/25 07:59:35;;;;;;;10.60;6.70;;;;;;;34.55;33.67;99814.20;108064;1253;59173;-67
2023/06/25 08:02:08;;;;;;;7.40;5.90;;;;;;;34.59;33.89;99816.10;108079;1253;64928;-69
2023/06/25 08:04:36;;;;;;;10.20;6.90;;;;;;;34.68;33.30;99814.00;108319;1254;61459;-67
2023/06/25 08:07:04;;;;;;;7.50;5.90;;;;;;;34.75;32.94;99813.20;108172;1257;63769;-69
2023/06/25 08:09:32;;;;;;;10.40;7.00;;;;;;;34.90;32.13;99815.38;108095;1254;60402;-68
2023/06/25 08:11:59;;;;;;;9.60;6.40;;;;;;;34.93;32.24;99815.31;107953;1254;60447;-68
2023/06/25 08:14:26;;;;;;;10.30;6.40;;;;;;;34.95;32.19;99813.07;108159;1254;63630;-70
2023/06/25 08:16:54;;;;;;;7.90;6.20;;;;;;;35.07;32.32;99812.80;108320;1254;61388;-68
2023/06/25 08:19:21;;;;;;;10.30;7.40;;;;;;;34.97;32.11;99812.70;108205;1254;63858;-69
2023/06/25 08:21:48;;;;;;;9.00;7.10;;;;;;;34.77;32.64;99811.06;108050;1254;60881;-69
2023/06/25 08:24:16;;;;;;;13.70;6.80;;;;;;;34.85;32.82;99811.36;108339;1254;60311;-69
2023/06/25 08:26:43;;;;;;;10.10;6.60;;;;;;;34.97;32.61;99814.89;108132;1254;64975;-70
2023/06/25 08:29:11;;;;;;;8.50;6.30;;;;;;;35.06;32.26;99814.95;107982;1254;61378;-69
2023/06/25 08:31:39;;;;;;;7.40;6.20;;;;;;;35.22;32.34;99816.75;109085;1254;62506;-70
2023/06/25 08:34:07;;;;;;;9.50;7.10;;;;;;;35.47;32.40;99818.18;108186;1253;60348;-69
2023/06/25 08:36:36;;;;;;;9.20;7.50;;;;;;;35.46;32.58;99820.21;108052;1254;60544;-71
2023/06/25 08:39:03;;;;;;;11.70;7.40;;;;;;;35.57;32.52;99818.91;107979;1254;75216;-68
2023/06/25 08:41:31;;;;;;;8.70;7.00;;;;;;;35.69;32.55;99817.45;107992;1257;61414;-69
2023/06/25 08:43:58;;;;;;;11.30;7.60;;;;;;;35.90;32.34;99818.08;107995;1254;63904;-70
2023/06/25 08:46:26;;;;;;;11.00;7.70;;;;;;;35.90;32.32;99820.73;108088;1253;60322;-69
2023/06/25 08:48:54;;;;;;;10.90;7.30;;;;;;;35.77;32.22;99824.00;107901;1254;61302;-69
2023/06/25 08:51:22;;;;;;;13.30;7.50;;;;;;;35.46;32.44;99826.30;108258;1254;63674;-69
2023/06/25 08:53:50;;;;;;;9.00;7.40;;;;;;;35.40;32.43;99823.15;108145;1254;61397;-70
2023/06/25 08:56:18;;;;;;;10.40;7.00;;;;;;;35.32;32.74;99824.39;108100;1254;62786;-72
2023/06/25 08:58:45;;;;;;;10.30;7.80;;;;;;;35.32;32.69;99821.49;108041;1258;60348;-69
2023/06/25 09:01:13;;;;;;;10.20;7.70;;;;;;;35.17;32.93;99821.34;108125;1254;60281;-70
2023/06/25 09:03:41;;;;;;;10.70;7.40;;;;;;;35.23;32.64;99820.11;108764;1252;64893;-70
2023/06/25 09:06:13;;;;;;;12.40;7.30;;;;;;;35.28;32.64;99823.30;108931;1254;60740;-69
2023/06/25 09:08:41;;;;;;;13.70;7.50;;;;;;;35.29;32.45;99821.64;108074;1254;63992;-69
2023/06/25 09:11:09;;;;;;;8.00;7.00;;;;;;;35.28;32.15;99820.89;108013;1254;59123;-69
2023/06/25 09:13:37;;;;;;;8.60;6.90;;;;;;;35.21;32.21;99813.05;108092;1254;60306;-69
2023/06/25 09:16:07;;;;;;;11.00;7.70;;;;;;;35.26;32.40;99815.36;108142;1253;63674;-69
2023/06/25 09:18:34;;;;;;;13.10;7.30;;;;;;;35.41;32.53;99810.75;108037;1253;61306;-69
2023/06/25 09:21:03;;;;;;;15.90;8.50;;;;;;;35.59;32.48;99808.40;108026;1258;63750;-69
2023/06/25 09:23:30;;;;;;;10.50;8.00;;;;;;;35.62;32.45;99807.58;107956;1254;60328;-69
2023/06/25 09:26:00;;;;;;;13.10;8.10;;;;;;;35.64;32.12;99808.77;107830;1254;239414;-68
2023/06/25 09:30:11;;;;;;;10.30;7.80;;;;;;;33.22;35.90;99804.14;104758;1293;600502;-69
2023/06/25 09:32:51;;;;;;;;;;;;;;;34.51;33.77;99799.89;107342;1264;59074;-70
2023/06/25 09:35:21;;;;;;;9.90;6.60;;;;;;;34.69;32.34;99797.48;107361;1264;59148;-68
2023/06/25 09:37:52;;;;;;;;;;;;;;;34.58;31.02;99795.92;107339;1264;63427;-67
2023/06/25 09:40:19;;;;;;;8.20;6.20;;;;;;;34.42;31.02;99795.05;107318;1264;61473;-69
2023/06/25 09:42:47;;;;;;;8.90;6.60;;;;;;;34.23;31.46;99796.53;107146;1264;234549;-69
2023/06/25 09:45:19;;;;;;;15.00;7.00;;;;;;;34.21;31.65;99797.38;107371;1266;59144;-68
2023/06/25 09:47:47;;;;;;;11.50;6.40;;;;;;;34.34;32.07;99795.59;107993;1264;58770;-68
2023/06/25 09:50:18;;;;;;;9.20;6.20;;;;;;;34.51;31.72;99789.66;107277;1264;63918;-69
2023/06/25 09:52:57;;;;;;;8.90;6.20;;;;;;;34.67;31.33;99791.57;107395;1263;61050;-68
2023/06/25 09:55:24;;;;;;;7.90;5.90;;;;;;;34.91;31.12;99791.92;107378;1264;62679;-70
2023/06/25 09:57:51;;;;;;;7.90;6.60;;;;;;;35.05;31.04;99795.16;107422;1264;59596;-67
2023/06/25 10:00:20;;;;;;;8.40;7.50;;;;;;;35.12;31.21;99794.26;107339;1264;59027;-69
2023/06/25 10:02:47;;;;;;;7.80;6.80;;;;;;;35.30;31.07;99788.96;107488;1266;64243;-69
2023/06/25 10:05:14;;;;;;;12.60;7.00;;;;;;;35.43;30.89;99789.02;108032;1254;61810;-70
2023/06/25 10:07:44;;;;;;;9.70;6.80;;;;;;;35.44;30.78;99786.60;108040;1253;62490;-68
2023/06/25 10:10:20;;;;;;;8.90;6.40;;;;;;;35.35;30.72;99777.95;107981;1255;59521;-68
2023/06/25 10:12:49;;;;;;;8.60;6.60;;;;;;;35.25;30.45;99775.08;107964;1254;59692;-69
2023/06/25 10:15:29;;;;;;;8.00;5.80;;;;;;;35.20;30.51;99770.87;108007;1255;62955;-68
2023/06/25 10:18:03;;;;;;;8.40;6.50;;;;;;;35.41;30.23;99766.80;108002;1254;61335;-69
2023/06/25 10:20:37;;;;;;;8.30;6.10;;;;;;;35.47;29.88;99762.54;108017;1254;62771;-70
2023/06/25 10:23:06;;;;;;;12.00;6.20;;;;;;;35.56;29.97;99760.41;107993;1254;58422;-69
2023/06/25 10:25:34;;;;;;;9.10;6.40;;;;;;;35.65;29.96;99760.83;107913;1256;59493;-68
2023/06/25 10:28:08;;;;;;;8.20;6.20;;;;;;;35.62;29.67;99764.21;108345;1254;63107;-70
2023/06/25 10:30:37;;;;;;;8.90;6.00;;;;;;;35.63;29.83;99762.66;107904;1254;60389;-68
2023/06/25 10:33:04;;;;;;;9.90;6.80;;;;;;;35.51;29.88;99763.74;107919;1258;64029;-68
2023/06/25 10:35:36;;;;;;;9.40;6.50;;;;;;;35.42;30.06;99762.00;108020;1254;59525;-69
2023/06/25 10:38:03;;;;;;;11.30;5.90;;;;;;;35.47;30.19;99757.19;107975;1254;59885;-68
2023/06/25 10:40:39;;;;;;;11.40;6.30;;;;;;;35.64;30.15;99755.73;108146;1254;64778;-69
2023/06/25 10:43:06;;;;;;;7.40;6.70;;;;;;;35.80;29.95;99753.33;108147;1254;61682;-70
2023/06/25 10:45:32;;;;;;;8.50;6.40;;;;;;;36.12;29.55;99751.52;108193;1254;62831;-69
2023/06/25 10:48:03;;;;;;;9.10;6.50;;;;;;;36.23;29.30;99751.61;108127;1254;59470;-69
2023/06/25 10:50:33;;;;;;;9.20;6.00;;;;;;;36.32;29.09;99749.53;108105;1256;59771;-69
2023/06/25 10:53:04;;;;;;;9.50;6.30;;;;;;;36.55;28.73;99751.10;108099;1253;64432;-70
2023/06/25 10:55:32;;;;;;;8.60;6.40;;;;;;;36.79;28.55;99748.86;108055;1254;60591;-69
2023/06/25 10:58:00;;;;;;;10.00;6.20;;;;;;;36.78;28.58;99748.52;108033;1254;63250;-69
2023/06/25 11:00:27;;;;;;;7.90;6.50;;;;;;;36.85;28.83;99747.23;108094;1254;59533;-69
2023/06/25 11:02:55;;;;;;;7.90;6.30;;;;;;;36.94;28.77;99748.27;108143;1254;59493;-69
2023/06/25 11:05:32;;;;;;;8.30;6.30;;;;;;;36.84;28.83;99745.84;108068;1254;64445;-68
2023/06/25 11:08:00;;;;;;;9.30;6.50;;;;;;;36.90;28.61;99748.13;108069;1254;61169;-69
2023/06/25 11:10:27;;;;;;;8.90;6.80;;;;;;;36.76;28.63;99747.53;108067;1253;63970;-69
2023/06/25 11:12:54;;;;;;;9.10;6.70;;;;;;;36.70;28.74;99748.91;107992;1254;59465;-69
2023/06/25 11:15:23;;;;;;;9.00;6.10;;;;;;;36.73;28.80;99749.15;108226;1253;59516;-69
2023/06/25 11:17:52;;;;;;;9.20;6.70;;;;;;;36.77;28.93;99751.31;108191;1254;64413;-70
2023/06/25 11:20:22;;;;;;;14.50;7.00;;;;;;;36.82;28.83;99753.38;108178;1255;61777;-71